Time;durP1;ratioP1;P1;durP2;ratioP2;P2;SDS_P1;SDS_P2;PMS_P1;PMS_P2;Temp;Humidity;BMP_temperature;BMP_pressure;BME280_temperature;BME280_humidity;BME280_pressure;Samples;Min_cycle;Max_cycle;Signal;HPM_P1;HPM_P2
2021/04/07 00:00:49;;;;;;;2.03;1.30;;;3.90;99.90;;;;;;5074814;28;20032;-48
2021/04/07 00:03:19;;;;;;;2.88;1.45;;;3.90;99.90;;;;;;5074984;28;20024;-48
2021/04/07 00:05:45;;;;;;;6.90;2.10;;;3.80;99.90;;;;;;5039685;28;20067;-48
2021/04/07 00:08:16;;;;;;;2.90;1.65;;;3.80;99.90;;;;;;5023300;28;20052;-48
2021/04/07 00:10:43;;;;;;;2.05;1.27;;;3.80;99.90;;;;;;5075452;28;20032;-49
2021/04/07 00:13:11;;;;;;;1.20;1.10;;;3.80;99.90;;;;;;5074921;28;20027;-49
2021/04/07 00:15:38;;;;;;;1.15;1.05;;;3.50;99.90;;;;;;5075013;28;20021;-48
2021/04/07 00:18:05;;;;;;;3.33;1.58;;;3.40;99.90;;;;;;5074688;28;20029;-49
2021/04/07 00:20:32;;;;;;;1.65;1.35;;;3.30;99.90;;;;;;5074831;28;20032;-48
2021/04/07 00:22:58;;;;;;;1.70;1.30;;;;;;;;;;5073834;28;20111;-49
2021/04/07 00:25:26;;;;;;;2.30;1.55;;;3.10;99.90;;;;;;5074341;28;20048;-49
2021/04/07 00:28:00;;;;;;;1.88;1.67;;;3.20;99.90;;;;;;5074557;28;20402;-48
2021/04/07 00:30:28;;;;;;;1.98;1.35;;;;;;;;;;5074469;28;20032;-48
2021/04/07 00:32:54;;;;;;;1.75;1.25;;;3.20;99.90;;;;;;5074373;28;20403;-48
2021/04/07 00:35:21;;;;;;;1.65;1.35;;;3.30;99.90;;;;;;5074189;28;20479;-49
2021/04/07 00:37:47;;;;;;;1.80;1.60;;;3.30;99.90;;;;;;5039483;28;20041;-49
2021/04/07 00:40:13;;;;;;;2.33;1.77;;;3.30;99.90;;;;;;5074204;28;20078;-49
2021/04/07 00:42:40;;;;;;;3.65;2.70;;;;;;;;;;5055730;28;20040;-48
2021/04/07 00:45:21;;;;;;;7.28;3.95;;;3.20;99.90;;;;;;5022904;28;20122;-49
2021/04/07 00:47:51;;;;;;;4.63;2.90;;;3.30;99.90;;;;;;5025489;28;20043;-49
2021/04/07 00:50:21;;;;;;;3.42;2.72;;;3.20;99.90;;;;;;5074231;28;20021;-49
2021/04/07 00:52:47;;;;;;;3.45;2.58;;;3.20;99.90;;;;;;5074190;28;20020;-48
2021/04/07 00:55:14;;;;;;;2.80;1.98;;;3.20;99.90;;;;;;5074017;28;20520;-49
2021/04/07 00:57:40;;;;;;;2.65;1.95;;;3.30;99.90;;;;;;5073917;28;20033;-49
2021/04/07 01:00:08;;;;;;;2.85;1.98;;;3.30;99.90;;;;;;5074226;28;20035;-48
2021/04/07 01:02:34;;;;;;;3.42;2.20;;;3.20;99.90;;;;;;5022875;28;20124;-48
2021/04/07 01:05:00;;;;;;;3.85;2.30;;;3.20;99.90;;;;;;5055355;28;20127;-48
2021/04/07 01:07:27;;;;;;;3.80;2.22;;;3.30;99.90;;;;;;5035020;28;20533;-49
2021/04/07 01:09:52;;;;;;;3.60;2.50;;;3.40;99.90;;;;;;5053778;28;20079;-48
2021/04/07 01:12:18;;;;;;;3.10;2.17;;;3.40;99.90;;;;;;5053974;28;20025;-48
2021/04/07 01:14:44;;;;;;;3.45;2.33;;;3.40;99.90;;;;;;5035247;28;20061;-49
2021/04/07 01:17:10;;;;;;;4.25;2.50;;;3.30;99.90;;;;;;5053831;28;20040;-48
2021/04/07 01:19:36;;;;;;;3.75;2.20;;;3.30;99.90;;;;;;5053860;28;20036;-49
2021/04/07 01:22:03;;;;;;;3.22;2.10;;;3.30;99.90;;;;;;5050784;28;20045;-49
2021/04/07 01:24:30;;;;;;;3.30;2.22;;;3.20;99.90;;;;;;5053352;28;20067;-49
2021/04/07 01:26:56;;;;;;;4.00;2.40;;;3.10;99.90;;;;;;5036054;28;20032;-50
2021/04/07 01:29:22;;;;;;;2.22;1.77;;;3.20;99.90;;;;;;5054608;28;20096;-48
2021/04/07 01:31:50;;;;;;;3.05;2.30;;;3.20;99.90;;;;;;5018962;28;20191;-49
2021/04/07 01:34:27;;;;;;;3.42;2.30;;;3.20;99.90;;;;;;5053708;28;20103;-49
2021/04/07 01:36:54;;;;;;;3.60;2.17;;;3.30;99.90;;;;;;5053366;28;20021;-49
2021/04/07 01:39:21;;;;;;;1.50;1.40;;;3.20;99.90;;;;;;5053673;28;20025;-49
2021/04/07 01:41:48;;;;;;;2.72;1.83;;;2.90;99.90;;;;;;5034719;28;20366;-49
2021/04/07 01:44:16;;;;;;;2.60;2.00;;;3.10;99.90;;;;;;5052648;28;20498;-49
2021/04/07 01:46:43;;;;;;;2.70;1.95;;;3.10;99.90;;;;;;5035469;28;20025;-49
2021/04/07 01:49:09;;;;;;;2.75;1.85;;;3.10;99.90;;;;;;5053390;28;20055;-49
2021/04/07 01:51:36;;;;;;;2.20;1.83;;;3.10;99.90;;;;;;5053369;28;20032;-49
2021/04/07 01:54:04;;;;;;;2.30;1.75;;;3.20;99.90;;;;;;5053206;28;20029;-49
2021/04/07 01:56:29;;;;;;;3.05;2.55;;;3.20;99.90;;;;;;5053258;28;20119;-49
2021/04/07 01:59:06;;;;;;;3.53;2.40;;;3.30;99.90;;;;;;5001918;28;20433;-49
2021/04/07 02:01:37;;;;;;;2.17;1.92;;;3.20;99.90;;;;;;5053261;28;20032;-49
2021/04/07 02:04:03;;;;;;;3.20;2.05;;;3.30;99.90;;;;;;5053072;28;20028;-49
2021/04/07 02:06:29;;;;;;;3.92;2.40;;;3.30;99.90;;;;;;5053263;28;20052;-49
2021/04/07 02:08:55;;;;;;;4.05;2.50;;;3.30;99.90;;;;;;5073133;28;20076;-49
2021/04/07 02:11:21;;;;;;;2.83;2.00;;;3.30;99.90;;;;;;5055040;28;20067;-49
2021/04/07 02:13:48;;;;;;;4.32;2.60;;;3.30;99.90;;;;;;5073427;28;20025;-49
2021/04/07 02:16:14;;;;;;;2.83;2.20;;;3.40;99.90;;;;;;5073531;28;20357;-49
2021/04/07 02:18:41;;;;;;;3.15;2.00;;;3.30;99.90;;;;;;5013601;28;20116;-49
2021/04/07 02:21:09;;;;;;;3.30;2.47;;;3.20;99.90;;;;;;5015643;28;20037;-52
2021/04/07 02:23:35;;;;;;;3.47;2.00;;;3.20;99.90;;;;;;5013982;28;20038;-56
2021/04/07 02:26:02;;;;;;;2.00;1.80;;;3.20;99.90;;;;;;5012966;28;20041;-49
2021/04/07 02:28:28;;;;;;;2.28;1.65;;;3.10;99.90;;;;;;5011539;28;20041;-49
2021/04/07 02:30:54;;;;;;;2.67;1.75;;;3.10;99.90;;;;;;5011122;28;20026;-49
2021/04/07 02:33:20;;;;;;;2.72;1.95;;;3.10;99.90;;;;;;5011335;28;20081;-49
2021/04/07 02:35:46;;;;;;;4.38;2.42;;;3.10;99.90;;;;;;5011278;28;20505;-49
2021/04/07 02:38:12;;;;;;;4.63;3.00;;;3.10;99.90;;;;;;4994563;28;20384;-49
2021/04/07 02:40:38;;;;;;;3.58;2.28;;;3.20;99.90;;;;;;5011115;28;20036;-49
2021/04/07 02:43:04;;;;;;;4.97;2.83;;;3.10;99.90;;;;;;5011339;28;20109;-49
2021/04/07 02:45:30;;;;;;;3.97;2.50;;;3.10;99.90;;;;;;5010975;28;20052;-49
2021/04/07 02:47:56;;;;;;;4.05;2.53;;;3.10;99.90;;;;;;5011124;28;20021;-49
2021/04/07 02:50:21;;;;;;;5.28;2.58;;;3.20;99.90;;;;;;5029946;28;20563;-49
2021/04/07 02:52:47;;;;;;;3.13;2.53;;;3.10;99.90;;;;;;5072472;28;20533;-49
2021/04/07 02:55:13;;;;;;;4.57;2.72;;;3.10;99.90;;;;;;5072617;28;20145;-49
2021/04/07 02:57:39;;;;;;;4.18;2.92;;;3.10;99.90;;;;;;5072855;28;20028;-49
2021/04/07 03:00:06;;;;;;;5.03;2.40;;;3.10;99.90;;;;;;5075015;28;20033;-49
2021/04/07 03:02:35;;;;;;;3.42;2.22;;;3.10;99.90;;;;;;4993432;28;20035;-49
2021/04/07 03:05:00;;;;;;;4.28;2.70;;;2.90;99.90;;;;;;5082277;28;20101;-51
2021/04/07 03:07:27;;;;;;;4.40;2.60;;;2.80;99.90;;;;;;5083936;28;20139;-59
2021/04/07 03:09:53;;;;;;;4.40;2.22;;;2.80;99.90;;;;;;5082577;28;20481;-50
2021/04/07 03:12:19;;;;;;;3.42;2.60;;;2.70;99.90;;;;;;5078526;28;20078;-54
2021/04/07 03:14:44;;;;;;;3.47;2.13;;;2.70;99.90;;;;;;5077222;28;20028;-48
2021/04/07 03:17:11;;;;;;;3.67;2.13;;;2.80;99.90;;;;;;5077348;28;20029;-49
2021/04/07 03:19:37;;;;;;;5.05;2.47;;;2.90;99.90;;;;;;5078152;28;20055;-51
2021/04/07 03:22:03;;;;;;;3.92;2.80;;;2.80;99.90;;;;;;5081885;28;20028;-49
2021/04/07 03:24:30;;;;;;;3.42;2.20;;;2.80;99.90;;;;;;5050087;28;20135;-53
2021/04/07 03:26:56;;;;;;;2.72;1.90;;;2.80;99.90;;;;;;5084591;28;20024;-55
2021/04/07 03:29:22;;;;;;;2.88;2.10;;;2.80;99.90;;;;;;5047025;28;20464;-50
2021/04/07 03:31:48;;;;;;;4.30;2.00;;;2.70;99.90;;;;;;5043751;28;20123;-50
2021/04/07 03:34:13;;;;;;;2.78;2.00;;;2.70;99.90;;;;;;5042737;28;20071;-49
2021/04/07 03:36:39;;;;;;;2.58;1.92;;;2.90;99.90;;;;;;5041972;28;20036;-49
2021/04/07 03:39:05;;;;;;;3.40;2.20;;;2.70;99.90;;;;;;5077450;28;20058;-50
2021/04/07 03:41:31;;;;;;;3.25;2.15;;;2.70;99.90;;;;;;5059217;28;20387;-49
2021/04/07 03:43:56;;;;;;;3.15;2.20;;;2.90;99.90;;;;;;5010111;28;20111;-49
2021/04/07 03:46:22;;;;;;;2.92;2.15;;;2.90;99.90;;;;;;5080475;28;20028;-60
2021/04/07 03:48:48;;;;;;;2.55;1.90;;;2.90;99.90;;;;;;5047664;28;20037;-49
2021/04/07 03:51:14;;;;;;;3.25;2.22;;;2.90;99.90;;;;;;5082796;28;20078;-49
2021/04/07 03:53:40;;;;;;;2.97;2.13;;;3.00;99.90;;;;;;5084307;28;20031;-56
2021/04/07 03:56:06;;;;;;;2.33;1.75;;;3.00;99.90;;;;;;5065387;28;20036;-51
2021/04/07 03:58:32;;;;;;;3.45;2.20;;;3.10;99.90;;;;;;5083241;28;20028;-55
2021/04/07 04:00:58;;;;;;;3.13;1.92;;;3.40;99.90;;;;;;5081211;28;20463;-62
2021/04/07 04:03:24;;;;;;;4.63;1.63;;;3.10;99.90;;;;;;5061243;28;20564;-49
2021/04/07 04:05:50;;;;;;;3.58;1.80;;;3.20;99.90;;;;;;5077910;28;20032;-60
2021/04/07 04:08:17;;;;;;;2.65;1.98;;;3.10;99.90;;;;;;5076767;28;20078;-63
2021/04/07 04:10:43;;;;;;;2.83;1.70;;;3.00;99.90;;;;;;5076307;28;20086;-51
2021/04/07 04:13:09;;;;;;;2.72;1.85;;;3.10;99.90;;;;;;5077164;28;20410;-49
2021/04/07 04:15:35;;;;;;;2.80;2.05;;;3.20;99.90;;;;;;5076933;28;20490;-49
2021/04/07 04:18:01;;;;;;;2.25;1.65;;;3.20;99.90;;;;;;5040809;28;20037;-49
2021/04/07 04:20:27;;;;;;;4.18;2.53;;;3.20;99.90;;;;;;5075084;28;20074;-49
2021/04/07 04:22:54;;;;;;;2.13;1.80;;;3.20;99.90;;;;;;5056779;28;20479;-53
2021/04/07 04:25:21;;;;;;;3.42;2.20;;;3.20;99.90;;;;;;5040152;28;20105;-49
2021/04/07 04:27:48;;;;;;;3.28;1.65;;;3.10;99.90;;;;;;5075342;28;20028;-48
2021/04/07 04:30:20;;;;;;;3.83;2.25;;;3.10;99.90;;;;;;5056072;28;20040;-49
2021/04/07 04:32:45;;;;;;;3.25;2.40;;;3.10;99.90;;;;;;5038570;28;20036;-49
2021/04/07 04:35:13;;;;;;;4.05;2.08;;;3.20;99.90;;;;;;5074680;28;20535;-50
2021/04/07 04:37:39;;;;;;;3.42;2.10;;;3.20;99.90;;;;;;5055529;28;20037;-51
2021/04/07 04:40:06;;;;;;;2.60;1.90;;;3.30;99.90;;;;;;5075003;28;20024;-49
2021/04/07 04:42:32;;;;;;;3.35;2.10;;;3.30;99.90;;;;;;4989885;28;20426;-50
2021/04/07 04:44:58;;;;;;;2.47;1.88;;;3.10;99.90;;;;;;5074967;28;20047;-49
2021/04/07 04:47:24;;;;;;;2.30;1.38;;;3.30;99.90;;;;;;4990706;28;20040;-49
2021/04/07 04:49:53;;;;;;;3.00;2.00;;;3.20;99.90;;;;;;5057202;28;20063;-48
2021/04/07 04:52:23;;;;;;;2.55;1.90;;;3.30;99.90;;;;;;4990733;28;20036;-48
2021/04/07 04:54:49;;;;;;;2.70;2.22;;;3.20;99.90;;;;;;5075909;28;20060;-74
2021/04/07 04:57:15;;;;;;;5.50;3.20;;;3.20;99.90;;;;;;5079952;28;20060;-54
2021/04/07 04:59:41;;;;;;;5.00;2.90;;;3.30;99.90;;;;;;5084688;28;20021;-49
2021/04/07 05:02:07;;;;;;;5.75;3.38;;;3.30;99.90;;;;;;5032435;28;20130;-53
2021/04/07 05:04:33;;;;;;;4.30;3.15;;;3.40;99.90;;;;;;5086848;28;20036;-55
2021/04/07 05:06:59;;;;;;;4.03;2.75;;;3.40;99.90;;;;;;5051822;28;20040;-64
2021/04/07 05:09:25;;;;;;;4.15;2.70;;;3.50;99.90;;;;;;5087608;28;20024;-53
2021/04/07 05:11:51;;;;;;;2.83;2.25;;;3.50;99.90;;;;;;5085383;28;20016;-49
2021/04/07 05:14:17;;;;;;;5.15;2.65;;;3.40;99.90;;;;;;5082267;28;20085;-52
2021/04/07 05:16:44;;;;;;;5.13;2.92;;;3.60;99.90;;;;;;5011203;28;20374;-51
2021/04/07 05:19:10;;;;;;;4.38;2.38;;;3.60;99.90;;;;;;5075940;28;20024;-50
2021/04/07 05:21:36;;;;;;;3.47;2.20;;;3.60;99.90;;;;;;5073756;28;20365;-50
2021/04/07 05:24:02;;;;;;;4.68;3.08;;;3.80;99.90;;;;;;5074447;28;20031;-50
2021/04/07 05:26:28;;;;;;;3.13;2.17;;;3.80;99.90;;;;;;5074308;28;20039;-54
2021/04/07 05:28:53;;;;;;;5.03;2.67;;;3.80;99.90;;;;;;5073335;28;20033;-51
2021/04/07 05:31:19;;;;;;;5.70;2.55;;;3.90;99.90;;;;;;5075905;28;20024;-53
2021/04/07 05:33:46;;;;;;;3.45;2.65;;;4.00;99.90;;;;;;5044752;28;20039;-51
2021/04/07 05:36:14;;;;;;;5.65;4.38;;;4.00;99.90;;;;;;5083870;28;20032;-62
2021/04/07 05:38:40;;;;;;;7.03;3.25;;;4.00;99.90;;;;;;5035193;28;20119;-68
2021/04/07 05:41:07;;;;;;;3.70;2.55;;;4.20;99.90;;;;;;5021702;28;20077;-52
2021/04/07 05:43:35;;;;;;;5.30;2.72;;;4.10;99.90;;;;;;5039861;28;20531;-50
2021/04/07 05:46:01;;;;;;;4.18;2.90;;;4.20;99.90;;;;;;5020357;28;20060;-50
2021/04/07 05:48:27;;;;;;;5.45;2.50;;;4.30;99.90;;;;;;5019514;28;20037;-51
2021/04/07 05:50:54;;;;;;;4.68;2.80;;;;;;;;;;5003537;28;20041;-58
2021/04/07 05:53:21;;;;;;;4.32;2.83;;;;;;;;;;5020368;28;20046;-52
2021/04/07 05:55:48;;;;;;;5.85;3.45;;;;;;;;;;5036642;28;20092;-50
2021/04/07 05:58:15;;;;;;;6.45;3.55;;;4.70;99.90;;;;;;5036668;28;20041;-58
2021/04/07 06:00:42;;;;;;;5.65;4.13;;;;;;;;;;5034964;28;20032;-50
2021/04/07 06:03:08;;;;;;;9.20;5.55;;;5.00;99.90;;;;;;5034202;28;20076;-50
2021/04/07 06:12:36;;;;;;;4.35;2.75;;;5.20;99.90;;;;;;5034346;28;20431;-50
2021/04/07 08:25:06;;;;;;;6.43;3.92;;;7.60;99.90;;;;;;5031376;28;20126;-49
2021/04/07 08:27:36;;;;;;;5.20;3.58;;;8.00;99.90;;;;;;5027865;28;20061;-49
2021/04/07 08:30:06;;;;;;;6.53;3.95;;;8.10;99.90;;;;;;5034563;28;20026;-49
2021/04/07 08:32:33;;;;;;;5.97;4.05;;;8.30;99.90;;;;;;5031245;28;20080;-49
2021/04/07 08:34:59;;;;;;;5.20;3.00;;;8.80;99.90;;;;;;5031723;28;20380;-47
2021/04/07 08:37:31;;;;;;;4.55;3.03;;;8.70;99.90;;;;;;5033576;28;20033;-48
2021/04/07 08:40:15;;;;;;;4.60;3.30;;;8.70;99.90;;;;;;5011803;28;20433;-48
2021/04/07 08:42:42;;;;;;;4.55;2.65;;;8.90;99.90;;;;;;4979393;28;20061;-48
2021/04/07 08:45:09;;;;;;;7.32;4.00;;;;;;;;;;5010026;28;20065;-51
2021/04/07 08:47:45;;;;;;;8.13;4.05;;;8.80;99.90;;;;;;5012105;28;20133;-47
2021/04/07 08:50:15;;;;;;;6.82;3.30;;;;;;;;;;5012402;28;20045;-47
2021/04/07 08:52:48;;;;;;;4.30;3.50;;;;;;;;;;4979162;28;20049;-50
2021/04/07 08:55:24;;;;;;;4.45;3.55;;;;;;;;;;5012010;28;20026;-52
2021/04/07 08:58:00;;;;;;;5.30;3.40;;;;;;;;;;5012455;28;20103;-48
2021/04/07 09:00:28;;;;;;;4.97;3.45;;;;;;;;;;5010861;28;20037;-49
2021/04/07 09:02:55;;;;;;;6.28;3.92;;;;;;;;;;5012187;28;20647;-49
2021/04/07 09:05:30;;;;;;;4.57;3.22;;;;;;;;;;5010509;28;20124;-45
2021/04/07 09:07:58;;;;;;;4.22;3.70;;;10.00;99.90;;;;;;5010510;28;20118;-47
2021/04/07 09:10:24;;;;;;;6.57;4.07;;;;;;;;;;5018256;28;20112;-48
2021/04/07 09:12:52;;;;;;;7.72;3.90;;;;;;;;;;5032990;28;20025;-48
2021/04/07 09:15:18;;;;;;;5.82;3.97;;;;;;;;;;5030261;28;20051;-49
2021/04/07 09:17:45;;;;;;;6.47;3.85;;;;;;;;;;5033055;28;20025;-49
2021/04/07 09:20:30;;;;;;;12.48;4.00;;;10.00;99.90;;;;;;5031902;28;20038;-51
2021/04/07 09:23:06;;;;;;;3.78;3.13;;;;;;;;;;5033784;28;20029;-49
2021/04/07 09:25:32;;;;;;;5.70;4.03;;;9.60;99.90;;;;;;5040741;28;20087;-48
2021/04/07 09:28:08;;;;;;;4.32;3.25;;;10.30;99.90;;;;;;5022224;28;20463;-49
2021/04/07 09:30:44;;;;;;;4.40;3.15;;;;;;;;;;5073604;28;20452;-51
2021/04/07 09:33:10;;;;;;;6.15;3.80;;;;;;;;;;5072912;28;20055;-49
2021/04/07 09:35:38;;;;;;;4.60;3.63;;;;;;;;;;5073692;28;20028;-48
2021/04/07 09:38:05;;;;;;;5.95;3.38;;;;;;;;;;5021851;28;20686;-48
2021/04/07 09:40:31;;;;;;;5.40;3.92;;;10.90;99.90;;;;;;5073753;28;20383;-49
2021/04/07 09:42:57;;;;;;;5.03;3.22;;;11.10;99.90;;;;;;5022058;28;20040;-49
2021/04/07 09:45:25;;;;;;;5.88;3.38;;;10.70;99.90;;;;;;5021714;28;20076;-48
2021/04/07 09:47:58;;;;;;;5.68;3.50;;;11.00;99.90;;;;;;5073538;28;20041;-48
2021/04/07 09:50:32;;;;;;;5.60;3.90;;;11.00;99.90;;;;;;5073454;28;20122;-49
2021/04/07 09:52:58;;;;;;;4.40;3.22;;;10.80;99.90;;;;;;5054456;28;20476;-49
2021/04/07 09:55:25;;;;;;;6.47;3.58;;;11.00;99.90;;;;;;5021603;28;20476;-49
2021/04/07 09:58:02;;;;;;;5.93;3.00;;;11.30;99.90;;;;;;5073549;28;20478;-49
2021/04/07 10:00:32;;;;;;;5.80;3.50;;;11.40;99.90;;;;;;5070567;28;20020;-49
2021/04/07 10:02:58;;;;;;;6.82;3.65;;;11.40;99.90;;;;;;5073520;28;20029;-49
2021/04/07 10:05:32;;;;;;;5.65;4.28;;;11.80;99.90;;;;;;5073257;28;20353;-49
2021/04/07 10:08:20;;;;;;;3.63;3.08;;;11.30;99.90;;;;;;5035018;28;20048;-49
2021/04/07 10:10:45;;;;;;;4.20;3.00;;;11.40;99.90;;;;;;5077124;28;20075;-49
2021/04/07 10:13:11;;;;;;;6.45;3.88;;;10.90;99.90;;;;;;5075090;28;20064;-49
2021/04/07 10:15:37;;;;;;;4.97;3.25;;;11.60;99.90;;;;;;5076790;28;20043;-51
2021/04/07 10:18:09;;;;;;;5.25;3.55;;;12.00;99.90;;;;;;5075770;28;20506;-52
2021/04/07 10:20:35;;;;;;;6.15;4.07;;;12.50;99.90;;;;;;5076043;28;20041;-51
2021/04/07 10:23:07;;;;;;;4.53;3.45;;;12.80;99.90;;;;;;5040835;28;20064;-48
2021/04/07 10:25:33;;;;;;;4.43;2.85;;;12.60;99.90;;;;;;5076795;28;20052;-52
2021/04/07 10:27:59;;;;;;;3.47;3.03;;;13.00;99.90;;;;;;5076937;28;20099;-49
2021/04/07 10:30:26;;;;;;;4.97;3.10;;;13.00;99.90;;;;;;5024538;28;20449;-52
2021/04/07 10:32:56;;;;;;;5.28;3.63;;;;;;;;;;5076651;28;20038;-51
2021/04/07 10:35:28;;;;;;;4.38;2.78;;;13.30;99.90;;;;;;5076757;28;20021;-47
2021/04/07 10:37:56;;;;;;;3.67;2.88;;;13.30;98.90;;;;;;5027279;28;20028;-50
2021/04/07 10:40:24;;;;;;;3.47;2.75;;;12.90;99.20;;;;;;5076595;28;20053;-48
2021/04/07 10:42:50;;;;;;;3.63;2.80;;;12.70;99.70;;;;;;5075965;28;20068;-50
2021/04/07 10:45:18;;;;;;;4.63;2.78;;;12.80;99.30;;;;;;5076030;28;20372;-53
2021/04/07 10:47:45;;;;;;;3.15;2.30;;;12.40;98.60;;;;;;5038542;28;20040;-53
2021/04/07 10:50:12;;;;;;;6.50;2.78;;;12.20;98.60;;;;;;5075672;28;20025;-50
2021/04/07 10:52:42;;;;;;;6.00;3.05;;;;;;;;;;5008154;28;20036;-52
2021/04/07 10:55:10;;;;;;;4.63;3.03;;;11.70;99.10;;;;;;5075254;28;20036;-48
2021/04/07 10:57:38;;;;;;;8.73;5.00;;;;;;;;;;5039861;28;20078;-50
2021/04/07 11:00:09;;;;;;;4.10;2.28;;;11.30;99.80;;;;;;5024229;28;20132;-52
2021/04/07 11:02:51;;;;;;;6.82;4.40;;;11.20;98.00;;;;;;4993016;28;20686;-51
2021/04/07 11:05:20;;;;;;;4.82;3.72;;;11.40;99.90;;;;;;5076130;28;20052;-55
2021/04/07 11:07:47;;;;;;;4.95;3.00;;;12.00;99.90;;;;;;5057299;28;20041;-48
2021/04/07 11:10:15;;;;;;;3.10;1.98;;;11.70;99.90;;;;;;5076094;28;20070;-53
2021/04/07 11:12:43;;;;;;;2.22;1.75;;;12.50;99.90;;;;;;5040748;28;20032;-51
2021/04/07 11:15:14;;;;;;;2.28;1.67;;;12.90;96.50;;;;;;5040316;28;20089;-54
2021/04/07 11:17:50;;;;;;;3.92;2.40;;;13.20;94.60;;;;;;5033622;28;20069;-53
2021/04/07 11:20:16;;;;;;;3.10;2.50;;;13.40;95.60;;;;;;4997824;28;20047;-55
2021/04/07 11:22:41;;;;;;;7.07;3.72;;;13.00;95.40;;;;;;5032441;28;20041;-50
2021/04/07 11:25:08;;;;;;;3.53;2.10;;;12.40;96.10;;;;;;5033252;28;20033;-53
2021/04/07 11:27:37;;;;;;;3.00;1.95;;;12.00;98.20;;;;;;5033694;28;20069;-54
2021/04/07 11:30:10;;;;;;;2.03;1.80;;;12.20;99.90;;;;;;5033178;28;20411;-52
2021/04/07 11:32:39;;;;;;;3.33;2.28;;;12.10;99.90;;;;;;5033780;28;20492;-52
2021/04/07 11:37:49;;;;;;;2.28;1.98;;;;;;;;;;5033396;28;20044;-52
2021/04/07 11:45:33;;;;;;;3.78;2.20;;;;;;;;;;5032737;28;20172;-51
2021/04/07 11:48:00;;;;;;;7.32;2.83;;;;;;;;;;5001689;28;20033;-53
2021/04/07 11:50:26;;;;;;;7.18;2.75;;;10.30;95.70;;;;;;5035518;28;20025;-53
2021/04/07 11:52:52;;;;;;;2.88;2.25;;;10.10;95.90;;;;;;5049865;28;20392;-53
2021/04/07 11:55:18;;;;;;;3.92;2.30;;;10.40;95.90;;;;;;5035552;28;20031;-51
2021/04/07 11:57:45;;;;;;;6.68;3.20;;;10.70;95.70;;;;;;5016198;28;20072;-53
2021/04/07 12:00:16;;;;;;;8.13;3.97;;;11.20;98.90;;;;;;5016857;28;20076;-54
2021/04/07 12:02:46;;;;;;;5.65;2.15;;;11.80;98.90;;;;;;5016918;28;20121;-52
2021/04/07 12:05:19;;;;;;;6.05;2.47;;;12.00;93.90;;;;;;5033908;28;20050;-50
2021/04/07 12:07:45;;;;;;;6.18;2.97;;;12.00;94.10;;;;;;5000344;28;20037;-53
2021/04/07 12:10:11;;;;;;;4.57;2.00;;;12.00;93.60;;;;;;5034105;28;20076;-52
2021/04/07 12:12:37;;;;;;;3.65;2.15;;;11.90;94.40;;;;;;4999899;28;20369;-49
2021/04/07 12:15:03;;;;;;;4.82;2.28;;;;;;;;;;5033194;28;20052;-50
2021/04/07 12:17:29;;;;;;;3.28;2.03;;;9.90;93.60;;;;;;5033087;28;20072;-51
2021/04/07 12:19:55;;;;;;;2.15;1.70;;;11.10;94.70;;;;;;5033582;28;20467;-58
2021/04/07 12:22:20;;;;;;;2.47;1.85;;;10.90;93.30;;;;;;5032886;28;20096;-58
2021/04/07 12:24:46;;;;;;;3.10;1.40;;;11.00;93.20;;;;;;5034792;28;20465;-55
2021/04/07 12:27:12;;;;;;;3.05;1.70;;;10.70;95.10;;;;;;5054275;28;20147;-50
2021/04/07 12:29:38;;;;;;;3.42;1.58;;;;;;;;;;5026655;28;20033;-51
2021/04/07 12:32:06;;;;;;;3.22;1.80;;;;;;;;;;5074384;28;20020;-51
2021/04/07 12:34:32;;;;;;;3.10;1.67;;;9.60;94.60;;;;;;5040182;28;20041;-51
2021/04/07 12:36:59;;;;;;;4.82;1.90;;;;;;;;;;5039141;28;20039;-51
2021/04/07 12:39:26;;;;;;;3.63;1.98;;;9.40;94.20;;;;;;5075723;28;20109;-51
2021/04/07 12:41:54;;;;;;;3.80;1.67;;;9.90;96.10;;;;;;5074668;28;20566;-51
2021/04/07 12:44:20;;;;;;;2.83;1.60;;;10.30;96.70;;;;;;5074193;28;20040;-51
2021/04/07 12:46:46;;;;;;;1.80;1.50;;;10.30;95.60;;;;;;5075673;28;20032;-51
2021/04/07 12:49:12;;;;;;;1.60;1.20;;;10.30;92.60;;;;;;5074324;28;20475;-51
2021/04/07 12:51:38;;;;;;;3.92;1.40;;;10.40;93.10;;;;;;5074117;28;20494;-51
2021/04/07 12:54:04;;;;;;;2.83;2.03;;;10.30;93.40;;;;;;5074677;28;20021;-50
2021/04/07 12:56:31;;;;;;;3.05;1.60;;;10.70;93.70;;;;;;5039549;28;20041;-50
2021/04/07 12:58:57;;;;;;;1.60;1.38;;;;;;;;;;5039821;28;20037;-51
2021/04/07 13:01:23;;;;;;;4.72;2.17;;;10.70;95.00;;;;;;5038955;28;20040;-52
2021/04/07 13:03:49;;;;;;;1.73;1.40;;;11.20;97.60;;;;;;5039005;28;20085;-52
2021/04/07 13:06:15;;;;;;;2.97;1.95;;;11.40;95.90;;;;;;5073905;28;20044;-51
2021/04/07 13:08:41;;;;;;;1.90;1.15;;;11.50;94.90;;;;;;4998876;28;20034;-51
2021/04/07 13:11:07;;;;;;;2.33;1.30;;;11.10;93.90;;;;;;4998899;28;20068;-52
2021/04/07 13:13:33;;;;;;;3.25;1.60;;;11.50;93.80;;;;;;5015177;28;20033;-50
2021/04/07 13:15:59;;;;;;;2.28;1.23;;;11.70;93.40;;;;;;5032128;28;20025;-51
2021/04/07 13:18:26;;;;;;;1.63;1.27;;;;;;;;;;5031867;28;20555;-51
2021/04/07 13:20:57;;;;;;;1.92;1.55;;;12.10;95.10;;;;;;5015217;28;20408;-52
2021/04/07 13:23:23;;;;;;;2.50;1.60;;;12.30;92.90;;;;;;5031772;28;20041;-51
2021/04/07 13:25:49;;;;;;;2.67;1.70;;;;;;;;;;4998775;28;20053;-51
2021/04/07 13:28:15;;;;;;;2.85;1.67;;;;;;;;;;5031539;28;20045;-52
2021/04/07 13:30:45;;;;;;;2.17;1.42;;;12.70;92.00;;;;;;5031430;28;20061;-51
2021/04/07 13:36:19;;;;;;;1.92;1.67;;;13.40;90.80;;;;;;4972458;28;20046;-51
2021/04/07 13:43:37;;;;;;;2.42;1.40;;;12.70;90.00;;;;;;4975106;28;20042;-52
2021/04/07 13:46:03;;;;;;;1.85;1.20;;;12.40;90.40;;;;;;4992046;28;20042;-50
2021/04/07 13:48:30;;;;;;;2.17;1.90;;;12.60;88.90;;;;;;4991937;28;20030;-52
2021/04/07 13:50:56;;;;;;;2.10;1.50;;;12.60;89.40;;;;;;4975801;28;20147;-52
2021/04/07 13:53:22;;;;;;;3.38;1.38;;;13.10;88.40;;;;;;4991936;28;20038;-52
2021/04/07 13:55:56;;;;;;;1.60;1.25;;;13.30;86.90;;;;;;4991974;28;20037;-51
2021/04/07 13:58:22;;;;;;;2.22;1.52;;;13.10;90.70;;;;;;4991892;28;20034;-52
2021/04/07 14:00:48;;;;;;;8.55;2.38;;;13.10;90.00;;;;;;4987248;28;20075;-51
2021/04/07 14:03:16;;;;;;;2.35;1.88;;;13.50;93.30;;;;;;4948252;28;20124;-53
2021/04/07 14:05:42;;;;;;;2.40;1.10;;;13.10;91.50;;;;;;4982505;28;20619;-51
2021/04/07 14:08:10;;;;;;;2.03;1.50;;;;;;;;;;4966388;28;20053;-51
2021/04/07 14:10:39;;;;;;;4.00;1.88;;;13.60;92.90;;;;;;4962269;28;20070;-53
2021/04/07 14:13:07;;;;;;;3.80;1.65;;;13.50;93.10;;;;;;4997685;28;20042;-51
2021/04/07 14:15:33;;;;;;;2.70;1.95;;;13.70;93.40;;;;;;5031051;28;20476;-51
2021/04/07 14:17:59;;;;;;;5.57;2.72;;;;;;;;;;5031222;28;20157;-51
2021/04/07 14:20:25;;;;;;;10.20;4.43;;;12.60;91.20;;;;;;5012275;28;20049;-52
2021/04/07 14:22:51;;;;;;;4.97;2.90;;;;;;;;;;4990783;28;20409;-51
2021/04/07 14:25:19;;;;;;;4.20;2.53;;;;;;;;;;5029696;28;20124;-52
2021/04/07 14:27:45;;;;;;;1.80;1.17;;;11.90;97.50;;;;;;5028714;28;20095;-52
2021/04/07 14:30:13;;;;;;;2.40;1.77;;;11.50;92.80;;;;;;5031128;28;20033;-52
2021/04/07 14:32:39;;;;;;;1.70;1.38;;;11.90;92.00;;;;;;4934764;28;20072;-53
2021/04/07 14:35:05;;;;;;;3.08;1.50;;;11.70;91.30;;;;;;4997823;28;20445;-51
2021/04/07 14:37:32;;;;;;;2.47;1.70;;;11.60;91.10;;;;;;5029839;28;20074;-50
2021/04/07 14:39:58;;;;;;;1.27;1.08;;;11.80;90.90;;;;;;5049040;28;20539;-49
2021/04/07 14:42:23;;;;;;;1.77;1.50;;;12.00;89.30;;;;;;5052652;28;20021;-49
2021/04/07 14:44:50;;;;;;;1.70;1.35;;;12.40;97.00;;;;;;5051952;28;20037;-50
2021/04/07 14:47:16;;;;;;;2.05;1.30;;;;;;;;;;5051331;28;20128;-49
2021/04/07 14:49:43;;;;;;;2.72;1.30;;;;;;;;;;5052583;28;20025;-50
2021/04/07 14:52:14;;;;;;;2.88;1.70;;;12.90;88.30;;;;;;5052971;28;20108;-49
2021/04/07 14:54:43;;;;;;;2.78;1.17;;;12.90;88.70;;;;;;5054514;28;20238;-50
2021/04/07 14:57:09;;;;;;;2.80;1.60;;;;;;;;;;5056454;28;20029;-50
2021/04/07 14:59:35;;;;;;;1.85;1.30;;;;;;;;;;5037304;28;20041;-50
2021/04/07 15:02:01;;;;;;;2.88;1.52;;;;;;;;;;5056554;28;20036;-49
2021/04/07 15:04:27;;;;;;;2.22;1.20;;;12.80;99.90;;;;;;5055779;28;20039;-50
2021/04/07 15:06:53;;;;;;;1.67;1.30;;;;;;;;;;4984427;28;20415;-49
2021/04/07 15:09:19;;;;;;;3.05;1.70;;;11.90;86.70;;;;;;5002588;28;20033;-51
2021/04/07 15:11:45;;;;;;;1.15;0.93;;;11.60;88.90;;;;;;5055600;28;20029;-50
2021/04/07 15:14:11;;;;;;;2.47;1.60;;;11.30;89.80;;;;;;5056474;28;20079;-50
2021/04/07 15:16:36;;;;;;;4.10;2.83;;;11.20;91.60;;;;;;5056344;28;20449;-50
2021/04/07 15:19:02;;;;;;;5.50;2.10;;;11.10;91.00;;;;;;5021197;28;20041;-51
2021/04/07 15:21:28;;;;;;;2.45;1.25;;;11.30;90.90;;;;;;4972361;28;20091;-51
2021/04/07 15:23:55;;;;;;;1.00;0.80;;;11.20;90.40;;;;;;5056042;28;20398;-50
2021/04/07 15:26:24;;;;;;;2.03;1.23;;;11.00;88.80;;;;;;5055745;28;20064;-50
2021/04/07 15:28:51;;;;;;;2.78;1.50;;;10.50;90.60;;;;;;5056361;28;20507;-50
2021/04/07 15:31:19;;;;;;;1.98;1.33;;;10.20;91.60;;;;;;5056062;28;20368;-50
2021/04/07 15:33:48;;;;;;;2.88;1.40;;;10.10;94.20;;;;;;5055825;28;20384;-50
2021/04/07 15:36:14;;;;;;;3.05;1.75;;;10.00;94.50;;;;;;5037375;28;20045;-50
2021/04/07 15:38:41;;;;;;;3.13;2.08;;;9.70;93.50;;;;;;5055878;28;20021;-50
2021/04/07 15:41:08;;;;;;;2.80;1.50;;;9.80;99.90;;;;;;5055788;28;20021;-50